createdAt,value
2023-04-06T00:00:51.304Z,0.22
2023-04-06T00:03:54.912Z,0.21
2023-04-06T00:06:58.585Z,0.26
2023-04-06T00:10:04.215Z,0.22
2023-04-06T00:13:08.399Z,0.18
2023-04-06T00:16:11.988Z,0.19
2023-04-06T00:19:16.257Z,0.24
2023-04-06T00:22:19.826Z,0.20
2023-04-06T00:25:24.767Z,0.10
2023-04-06T00:28:29.325Z,0.06
2023-04-06T00:31:32.975Z,0.02
2023-04-06T00:34:36.529Z,0.05
2023-04-06T00:37:40.088Z,0.07
2023-04-06T00:40:46.414Z,0.06
2023-04-06T00:43:50.298Z,0.00
2023-04-06T00:46:54.068Z,-0.01
2023-04-06T00:49:57.762Z,-0.08
2023-04-06T00:53:01.522Z,-0.06
2023-04-06T00:56:07.364Z,-0.06
2023-04-06T00:59:11.302Z,-0.03
2023-04-06T01:02:15.069Z,-0.03
2023-04-06T01:05:19.018Z,-0.07
2023-04-06T01:08:22.920Z,-0.13
2023-04-06T01:11:28.286Z,-0.16
2023-04-06T01:14:32.021Z,-0.15
2023-04-06T01:17:36.329Z,-0.18
2023-04-06T01:20:40.185Z,-0.10
2023-04-06T01:23:47.079Z,-0.16
2023-04-06T01:26:50.760Z,-0.22
2023-04-06T01:29:54.286Z,-0.22
2023-04-06T01:32:57.984Z,-0.15
2023-04-06T01:36:02.085Z,-0.24
2023-04-06T01:39:07.403Z,-0.27
2023-04-06T01:42:11.146Z,-0.25
2023-04-06T01:45:14.852Z,-0.29
2023-04-06T01:48:18.749Z,-0.31
2023-04-06T01:51:22.359Z,-0.27
2023-04-06T01:54:27.223Z,-0.26
2023-04-06T01:57:30.771Z,-0.23
2023-04-06T02:00:34.478Z,-0.17
2023-04-06T02:03:37.966Z,-0.19
2023-04-06T02:06:41.505Z,-0.15
2023-04-06T02:09:46.489Z,-0.10
2023-04-06T02:12:50.260Z,-0.12
2023-04-06T02:15:53.796Z,-0.19
2023-04-06T02:18:57.290Z,-0.21
2023-04-06T02:22:01.378Z,-0.19
2023-04-06T02:25:07.246Z,-0.21
2023-04-06T02:28:10.779Z,-0.24
2023-04-06T02:31:16.047Z,-0.29
2023-04-06T02:34:19.717Z,-0.29
2023-04-06T02:37:24.287Z,-0.31
2023-04-06T02:40:29.200Z,-0.32
2023-04-06T02:43:33.525Z,-0.33
2023-04-06T02:46:37.229Z,-0.28
2023-04-06T02:49:40.842Z,-0.30
2023-04-06T02:52:44.481Z,-0.36
2023-04-06T02:55:49.450Z,-0.46
2023-04-06T02:58:53.237Z,-0.45
2023-04-06T03:01:56.873Z,-0.57
2023-04-06T03:05:00.554Z,-0.63
2023-04-06T03:08:04.092Z,-0.62
2023-04-06T03:11:09.273Z,-0.64
2023-04-06T03:14:14.003Z,-0.66
2023-04-06T03:17:17.557Z,-0.68
2023-04-06T03:20:21.108Z,-0.75
2023-04-06T03:23:24.890Z,-0.75
2023-04-06T03:26:29.839Z,-0.73
2023-04-06T03:29:33.409Z,-0.76
2023-04-06T03:32:37.035Z,-0.76
2023-04-06T03:35:40.702Z,-0.76
2023-04-06T03:38:44.286Z,-0.78
2023-04-06T03:41:49.259Z,-0.76
2023-04-06T03:44:52.903Z,-0.69
2023-04-06T03:47:56.522Z,-0.58
2023-04-06T03:51:00.114Z,-0.57
2023-04-06T03:54:03.614Z,-0.58
2023-04-06T03:57:08.633Z,-0.55
2023-04-06T04:00:14.285Z,-0.53
2023-04-06T04:03:17.928Z,-0.60
2023-04-06T04:06:21.741Z,-0.59
2023-04-06T04:09:26.354Z,-0.61
2023-04-06T04:12:32.971Z,-0.65
2023-04-06T04:15:36.644Z,-0.62
2023-04-06T04:18:40.184Z,-0.63
2023-04-06T04:21:48.626Z,-0.60
2023-04-06T04:24:52.764Z,-0.60
2023-04-06T04:27:57.689Z,-0.62
2023-04-06T04:31:01.497Z,-0.63
2023-04-06T04:34:05.122Z,-0.63
2023-04-06T04:37:08.815Z,-0.63
2023-04-06T04:40:13.624Z,-0.67
2023-04-06T04:43:18.867Z,-0.69
2023-04-06T04:46:22.788Z,-0.72
2023-04-06T04:49:26.539Z,-0.75
2023-04-06T04:52:30.033Z,-0.73
2023-04-06T04:55:33.810Z,-0.72
2023-04-06T04:58:39.468Z,-0.75
2023-04-06T05:01:54.368Z,-0.68
2023-04-06T05:04:59.164Z,-0.71
2023-04-06T05:08:02.773Z,-0.67
2023-04-06T05:11:06.563Z,-0.71
2023-04-06T05:14:12.175Z,-0.67
2023-04-06T05:17:16.054Z,-0.75
2023-04-06T05:20:20.000Z,-0.75
2023-04-06T05:23:23.645Z,-0.82
2023-04-06T05:26:27.276Z,-0.81
2023-04-06T05:29:32.437Z,-0.81
2023-04-06T05:32:37.287Z,-0.80
2023-04-06T05:35:41.185Z,-0.76
2023-04-06T05:38:44.805Z,-0.63
2023-04-06T05:41:48.852Z,-0.56
2023-04-06T05:44:53.791Z,-0.50
2023-04-06T05:47:58.618Z,-0.46
2023-04-06T05:51:03.183Z,-0.45
2023-04-06T05:54:06.957Z,-0.19
2023-04-06T05:57:11.565Z,-0.13
2023-04-06T06:00:17.615Z,0.08
2023-04-06T06:03:23.776Z,0.12
2023-04-06T06:06:28.045Z,0.19
2023-04-06T06:09:31.680Z,0.23
2023-04-06T06:12:35.346Z,0.47
2023-04-06T06:15:40.302Z,0.64
2023-04-06T06:18:43.963Z,0.54
2023-04-06T06:21:47.500Z,0.77
2023-04-06T06:24:51.557Z,0.79
2023-04-06T06:27:55.081Z,0.72
2023-04-06T06:31:00.218Z,0.67
2023-04-06T06:34:03.991Z,0.91
2023-04-06T06:37:08.938Z,0.90
2023-04-06T06:40:14.754Z,1.14
2023-04-06T06:43:18.410Z,1.12
2023-04-06T06:46:23.510Z,1.44
2023-04-06T06:49:27.137Z,1.71
2023-04-06T06:52:30.673Z,1.75
2023-04-06T06:55:34.322Z,2.02
2023-04-06T06:58:38.113Z,2.24
2023-04-06T07:01:43.608Z,2.03
2023-04-06T07:04:50.511Z,2.23
2023-04-06T07:07:54.118Z,2.22
2023-04-06T07:10:58.020Z,2.54
2023-04-06T07:14:01.610Z,2.69
2023-04-06T07:17:06.696Z,2.99
2023-04-06T07:20:11.876Z,3.49
2023-04-06T07:23:16.091Z,3.57
2023-04-06T07:26:19.771Z,3.69
2023-04-06T07:29:24.024Z,3.74
2023-04-06T07:32:29.099Z,3.93
2023-04-06T07:35:33.197Z,4.29
2023-04-06T07:38:36.761Z,4.51
2023-04-06T07:41:40.821Z,4.58
2023-04-06T07:44:44.429Z,4.95
2023-04-06T07:47:49.807Z,5.24
2023-04-06T07:50:53.493Z,4.98
2023-04-06T07:53:57.109Z,5.10
2023-04-06T07:57:00.643Z,5.60
2023-04-06T08:00:05.254Z,5.22
2023-04-06T08:03:10.282Z,5.52
2023-04-06T08:06:13.936Z,6.06
2023-04-06T08:09:17.485Z,5.89
2023-04-06T08:12:21.109Z,6.63
2023-04-06T08:15:24.779Z,6.58
2023-04-06T08:18:30.981Z,6.91
2023-04-06T08:21:35.389Z,6.55
2023-04-06T08:24:39.084Z,6.30
2023-04-06T08:27:42.695Z,6.42
2023-04-06T08:30:46.348Z,6.45
2023-04-06T08:33:51.308Z,6.45
2023-04-06T08:36:54.941Z,6.85
2023-04-06T08:39:59.749Z,7.09
2023-04-06T08:43:12.450Z,7.14
2023-04-06T08:46:17.286Z,7.60
2023-04-06T08:49:23.251Z,7.51
2023-04-06T08:52:29.862Z,7.53
2023-04-06T08:55:33.838Z,7.36
2023-04-06T08:58:41.279Z,7.46
2023-04-06T09:01:47.804Z,7.42
2023-04-06T09:04:56.427Z,7.23
2023-04-06T09:08:00.183Z,7.70
2023-04-06T09:11:04.250Z,7.88
2023-04-06T09:14:08.175Z,8.22
2023-04-06T09:17:23.646Z,8.57
2023-04-06T09:20:30.475Z,8.13
2023-04-06T09:23:34.371Z,8.54
2023-04-06T09:26:49.055Z,8.61
2023-04-06T09:29:52.693Z,8.23
2023-04-06T09:33:00.424Z,8.36
2023-04-06T09:36:05.908Z,8.15
2023-04-06T09:39:09.457Z,8.56
2023-04-06T09:42:26.530Z,8.68
2023-04-06T09:45:32.877Z,8.68
2023-04-06T09:48:38.159Z,8.57
2023-04-06T09:51:48.504Z,8.66
2023-04-06T09:54:55.723Z,8.74
2023-04-06T09:58:07.193Z,8.91
2023-04-06T10:01:17.410Z,9.25
2023-04-06T10:04:42.717Z,9.06
2023-04-06T10:08:00.125Z,9.04
2023-04-06T10:11:06.750Z,9.39
2023-04-06T10:14:12.878Z,9.10
2023-04-06T10:17:16.472Z,9.22
2023-04-06T10:20:30.100Z,9.38
2023-04-06T10:23:42.225Z,9.43
2023-04-06T10:26:46.070Z,9.62
2023-04-06T10:29:52.302Z,9.22
2023-04-06T10:32:55.974Z,9.57
2023-04-06T10:35:59.891Z,9.86
2023-04-06T10:39:07.566Z,9.50
2023-04-06T10:42:11.716Z,9.78
2023-04-06T10:45:23.937Z,9.70
2023-04-06T10:48:38.556Z,9.85
2023-04-06T10:51:42.388Z,10.11
2023-04-06T10:54:50.445Z,10.12
2023-04-06T10:57:54.632Z,10.20
2023-04-06T11:00:58.473Z,9.82
2023-04-06T11:04:02.249Z,10.28
2023-04-06T11:07:06.363Z,10.54
2023-04-06T11:10:17.549Z,10.52
2023-04-06T11:13:22.975Z,10.63
2023-04-06T11:16:29.195Z,10.28
2023-04-06T11:19:34.598Z,10.40
2023-04-06T11:22:38.160Z,10.61
2023-04-06T11:25:53.932Z,10.46
2023-04-06T11:28:57.603Z,10.73
2023-04-06T11:32:04.008Z,10.63
2023-04-06T11:35:08.985Z,10.71
2023-04-06T11:38:12.646Z,10.49
2023-04-06T11:41:17.697Z,10.89
2023-04-06T11:44:34.235Z,10.86
2023-04-06T11:47:39.675Z,11.28
2023-04-06T11:50:43.353Z,11.63
2023-04-06T11:53:47.945Z,11.32
2023-04-06T11:56:52.965Z,11.29
2023-04-06T11:59:57.698Z,11.37
2023-04-06T12:03:01.436Z,11.14
2023-04-06T12:06:05.103Z,11.67
2023-04-06T12:09:08.731Z,11.48
2023-04-06T12:12:13.697Z,11.62
2023-04-06T12:15:17.424Z,11.75
2023-04-06T12:18:21.142Z,11.48
2023-04-06T12:21:24.870Z,11.76
2023-04-06T12:24:29.337Z,11.83
2023-04-06T12:27:34.408Z,11.76
2023-04-06T12:30:38.212Z,11.96
2023-04-06T12:33:41.729Z,11.71
2023-04-06T12:36:45.453Z,11.83
2023-04-06T12:39:49.096Z,11.97
2023-04-06T12:42:54.099Z,12.29
2023-04-06T12:45:57.614Z,12.30
2023-04-06T12:49:02.144Z,12.11
2023-04-06T12:52:06.107Z,12.51
2023-04-06T12:55:11.091Z,12.36
2023-04-06T12:58:16.298Z,12.06
2023-04-06T13:01:21.145Z,11.98
2023-04-06T13:04:25.688Z,12.49
2023-04-06T13:07:29.752Z,12.39
2023-04-06T13:10:33.270Z,12.43
2023-04-06T13:13:39.340Z,12.21
2023-04-06T13:16:43.797Z,12.48
2023-04-06T13:19:47.598Z,12.34
2023-04-06T13:22:51.152Z,12.47
2023-04-06T13:26:01.863Z,12.49
2023-04-06T13:29:06.826Z,12.81
2023-04-06T13:32:11.368Z,12.38
2023-04-06T13:35:15.602Z,12.24
2023-04-06T13:38:19.437Z,12.22
2023-04-06T13:41:24.298Z,12.54
2023-04-06T13:44:30.990Z,12.37
2023-04-06T13:47:34.715Z,12.29
2023-04-06T13:50:38.342Z,12.51
2023-04-06T13:53:42.716Z,12.49
2023-04-06T13:56:47.332Z,12.72
2023-04-06T13:59:52.198Z,12.99
2023-04-06T14:02:57.080Z,12.79
2023-04-06T14:06:05.052Z,12.57
2023-04-06T14:09:19.604Z,12.83
2023-04-06T14:12:23.248Z,12.75
2023-04-06T14:15:28.986Z,12.57
2023-04-06T14:18:32.469Z,12.91
2023-04-06T14:21:36.116Z,13.14
2023-04-06T14:24:39.707Z,12.81
2023-04-06T14:27:44.171Z,12.91
2023-04-06T14:30:49.020Z,13.24
2023-04-06T14:33:53.773Z,13.11
2023-04-06T14:36:57.842Z,12.85
2023-04-06T14:40:01.382Z,12.68
2023-04-06T14:43:05.116Z,12.71
2023-04-06T14:46:10.133Z,12.90
2023-04-06T14:49:16.231Z,13.01
2023-04-06T14:52:19.902Z,12.91
2023-04-06T14:55:23.685Z,12.83
2023-04-06T14:58:28.331Z,13.02
2023-04-06T15:01:37.134Z,12.97
2023-04-06T15:04:42.049Z,12.96
2023-04-06T15:07:50.494Z,12.85
2023-04-06T15:10:55.667Z,12.82
2023-04-06T15:13:59.327Z,12.71
2023-04-06T15:17:04.426Z,12.57
2023-04-06T15:20:09.473Z,12.81
2023-04-06T15:23:13.424Z,12.63
2023-04-06T15:26:17.001Z,12.47
2023-04-06T15:29:21.366Z,12.62
2023-04-06T15:32:27.260Z,12.64
2023-04-06T15:35:31.723Z,12.43
2023-04-06T15:38:35.896Z,12.43
2023-04-06T15:41:39.610Z,12.62
2023-04-06T15:44:43.675Z,12.74
2023-04-06T15:47:48.830Z,13.02
2023-04-06T15:50:53.290Z,12.78
2023-04-06T15:53:57.199Z,12.62
2023-04-06T15:57:01.540Z,12.69
2023-04-06T16:00:07.184Z,12.27
2023-04-06T16:03:12.306Z,12.22
2023-04-06T16:06:16.482Z,12.14
2023-04-06T16:09:20.312Z,12.26
2023-04-06T16:12:25.168Z,12.14
2023-04-06T16:15:29.496Z,12.08
2023-04-06T16:18:36.485Z,11.91
2023-04-06T16:21:40.325Z,11.83
2023-04-06T16:24:43.986Z,11.70
2023-04-06T16:27:48.249Z,11.80
2023-04-06T16:30:51.969Z,11.42
2023-04-06T16:33:58.047Z,11.45
2023-04-06T16:37:02.646Z,11.50
2023-04-06T16:40:08.477Z,11.45
2023-04-06T16:43:12.193Z,11.35
2023-04-06T16:46:15.955Z,11.45
2023-04-06T16:49:21.341Z,11.36
2023-04-06T16:52:24.973Z,11.40
2023-04-06T16:55:28.601Z,11.28
2023-04-06T16:58:32.852Z,11.43
2023-04-06T17:01:36.605Z,11.31
2023-04-06T17:04:41.814Z,11.09
2023-04-06T17:07:45.441Z,11.04
2023-04-06T17:10:59.287Z,10.89
2023-04-06T17:14:06.701Z,10.79
2023-04-06T17:17:10.322Z,10.65
2023-04-06T17:20:15.494Z,10.57
2023-04-06T17:23:21.152Z,10.42
2023-04-06T17:26:24.899Z,10.36
2023-04-06T17:29:28.423Z,10.27
2023-04-06T17:32:32.713Z,10.17
2023-04-06T17:35:38.121Z,10.11
2023-04-06T17:38:44.123Z,10.10
2023-04-06T17:41:47.858Z,9.90
2023-04-06T17:44:53.323Z,9.79
2023-04-06T17:47:57.126Z,9.68
2023-04-06T17:51:02.096Z,9.58
2023-04-06T17:54:05.950Z,9.51
2023-04-06T17:57:09.496Z,9.38
2023-04-06T18:00:15.788Z,9.34
2023-04-06T18:03:19.295Z,9.24
2023-04-06T18:06:25.761Z,9.16
2023-04-06T18:09:32.296Z,9.13
2023-04-06T18:12:36.160Z,9.06
2023-04-06T18:15:57.301Z,8.97
2023-04-06T18:19:04.494Z,8.99
2023-04-06T18:22:10.630Z,8.85
2023-04-06T18:25:14.289Z,8.78
2023-04-06T18:28:17.894Z,8.75
2023-04-06T18:31:22.017Z,8.55
2023-04-06T18:34:25.728Z,8.53
2023-04-06T18:37:30.850Z,8.52
2023-04-06T18:40:36.940Z,8.50
2023-04-06T18:43:40.520Z,8.46
2023-04-06T18:46:46.073Z,8.38
2023-04-06T18:49:50.101Z,8.31
2023-04-06T18:52:55.172Z,8.29
2023-04-06T18:55:59.084Z,8.31
2023-04-06T18:59:02.629Z,8.31
2023-04-06T19:02:06.479Z,8.16
2023-04-06T19:05:12.149Z,8.20
2023-04-06T19:08:17.268Z,8.15
2023-04-06T19:11:23.278Z,8.07
2023-04-06T19:14:26.942Z,7.94
2023-04-06T19:17:30.618Z,7.93
2023-04-06T19:20:35.691Z,7.87
2023-04-06T19:23:40.648Z,7.75
2023-04-06T19:26:45.055Z,7.73
2023-04-06T19:29:48.606Z,7.62
2023-04-06T19:32:52.949Z,7.50
2023-04-06T19:35:56.531Z,7.40
2023-04-06T19:39:01.811Z,7.48
2023-04-06T19:42:05.872Z,7.36
2023-04-06T19:45:10.391Z,7.24
2023-04-06T19:48:13.944Z,7.20
2023-04-06T19:51:17.613Z,7.14
2023-04-06T19:54:22.788Z,7.20
2023-04-06T19:57:27.542Z,7.07
2023-04-06T20:00:31.456Z,7.10
2023-04-06T20:03:36.530Z,7.12
2023-04-06T20:06:40.215Z,7.19
2023-04-06T20:09:45.141Z,7.21
2023-04-06T20:12:48.812Z,7.28
2023-04-06T20:15:52.356Z,7.17
2023-04-06T20:18:55.968Z,7.19
2023-04-06T20:22:03.211Z,7.17
2023-04-06T20:25:10.621Z,7.20
2023-04-06T20:28:14.155Z,7.17
2023-04-06T20:31:17.686Z,7.24
2023-04-06T20:34:21.934Z,7.19
2023-04-06T20:37:25.787Z,7.11
2023-04-06T20:40:31.157Z,7.10
2023-04-06T20:43:35.582Z,7.02
2023-04-06T20:46:39.243Z,6.94
2023-04-06T20:49:42.757Z,6.87
2023-04-06T20:52:46.969Z,6.81
2023-04-06T20:55:51.843Z,6.74
2023-04-06T20:58:55.575Z,6.63
2023-04-06T21:01:59.294Z,6.58
2023-04-06T21:05:03.330Z,6.43
2023-04-06T21:08:07.023Z,6.41
2023-04-06T21:11:12.398Z,6.34
2023-04-06T21:14:16.900Z,6.32
2023-04-06T21:17:21.510Z,6.24
2023-04-06T21:20:25.100Z,6.30
2023-04-06T21:23:28.903Z,6.17
2023-04-06T21:26:33.800Z,6.09
2023-04-06T21:29:37.420Z,5.95
2023-04-06T21:32:41.007Z,5.76
2023-04-06T21:35:44.644Z,5.78
2023-04-06T21:38:48.202Z,5.78
2023-04-06T21:41:53.630Z,5.68
2023-04-06T21:44:58.300Z,5.66
2023-04-06T21:48:02.697Z,5.65
2023-04-06T21:51:06.249Z,5.62
2023-04-06T21:54:09.996Z,5.57
2023-04-06T21:57:14.857Z,5.53
2023-04-06T22:00:20.481Z,5.43
2023-04-06T22:03:24.120Z,5.33
2023-04-06T22:06:29.956Z,5.27
2023-04-06T22:09:33.658Z,5.30
2023-04-06T22:12:38.647Z,5.39
2023-04-06T22:15:42.160Z,5.33
2023-04-06T22:18:45.771Z,5.39
2023-04-06T22:21:50.040Z,5.35
2023-04-06T22:24:54.029Z,5.36
2023-04-06T22:27:58.944Z,5.32
2023-04-06T22:31:02.495Z,5.35
2023-04-06T22:34:06.170Z,5.43
2023-04-06T22:37:09.709Z,5.41
2023-04-06T22:40:14.682Z,5.40
2023-04-06T22:43:19.612Z,5.35
2023-04-06T22:46:23.640Z,5.39
2023-04-06T22:49:27.163Z,5.42
2023-04-06T22:52:30.796Z,5.33
2023-04-06T22:55:34.639Z,5.28
2023-04-06T22:58:39.503Z,5.24
2023-04-06T23:01:43.321Z,5.15
2023-04-06T23:04:47.036Z,5.13
2023-04-06T23:07:51.294Z,5.06
2023-04-06T23:10:54.779Z,5.03
2023-04-06T23:13:59.779Z,4.97
2023-04-06T23:17:03.469Z,4.89
2023-04-06T23:20:08.769Z,4.82
2023-04-06T23:23:12.269Z,4.76
2023-04-06T23:26:15.842Z,4.70
2023-04-06T23:29:20.743Z,4.64
2023-04-06T23:32:24.478Z,4.62
2023-04-06T23:35:28.069Z,4.59
2023-04-06T23:38:31.593Z,4.62
2023-04-06T23:41:35.659Z,4.56
2023-04-06T23:44:40.594Z,4.53
2023-04-06T23:47:45.961Z,4.48
2023-04-06T23:50:49.571Z,4.44
2023-04-06T23:53:53.108Z,4.44
2023-04-06T23:56:58.477Z,4.47
